createdAt,value
2019-03-05T00:02:05.880Z,9.39
2019-03-05T00:04:35.373Z,9.14
2019-03-05T00:07:04.911Z,9.52
2019-03-05T00:09:34.380Z,9.32
2019-03-05T00:12:04.231Z,9.53
2019-03-05T00:14:33.717Z,9.57
2019-03-05T00:17:03.185Z,8.84
2019-03-05T00:19:32.669Z,8.99
2019-03-05T00:22:02.127Z,8.83
2019-03-05T00:25:06.180Z,9.25
2019-03-05T00:27:41.811Z,9.05
2019-03-05T00:30:19.632Z,8.72
2019-03-05T00:32:52.123Z,9.06
2019-03-05T00:35:39.500Z,8.75
2019-03-05T00:38:23.627Z,8.91
2019-03-05T00:41:24.505Z,8.67
2019-03-05T00:44:24.481Z,8.48
2019-03-05T00:47:13.164Z,8.30
2019-03-05T00:50:12.984Z,8.60
2019-03-05T00:53:04.519Z,8.80
2019-03-05T00:56:17.019Z,9.36
2019-03-05T00:59:30.439Z,9.01
2019-03-05T01:02:23.411Z,8.57
2019-03-05T01:05:18.322Z,8.47
2019-03-05T01:07:47.785Z,8.72
2019-03-05T01:10:17.339Z,8.73
2019-03-05T01:12:46.881Z,8.72
2019-03-05T01:15:16.538Z,9.15
2019-03-05T01:17:46.019Z,8.95
2019-03-05T01:20:15.572Z,9.26
2019-03-05T01:22:45.042Z,8.68
2019-03-05T01:25:27.768Z,8.41
2019-03-05T01:27:57.243Z,8.66
2019-03-05T01:30:36.219Z,8.88
2019-03-05T01:33:10.376Z,8.84
2019-03-05T01:35:58.891Z,8.77
2019-03-05T01:38:30.003Z,8.66
2019-03-05T01:41:04.225Z,8.37
2019-03-05T01:43:33.758Z,8.70
2019-03-05T01:46:03.228Z,8.93
2019-03-05T01:48:32.758Z,8.99
2019-03-05T01:51:02.223Z,9.12
2019-03-05T01:53:31.689Z,9.06
2019-03-05T01:56:01.179Z,9.09
2019-03-05T01:58:30.758Z,8.72
2019-03-05T02:01:00.230Z,8.66
2019-03-05T02:03:29.876Z,8.47
2019-03-05T02:05:59.533Z,9.08
2019-03-05T02:08:29.067Z,9.28
2019-03-05T02:10:58.896Z,9.12
2019-03-05T02:13:28.446Z,9.17
2019-03-05T02:15:58.036Z,9.10
2019-03-05T02:18:27.841Z,9.26
2019-03-05T02:20:57.333Z,9.16
2019-03-05T02:23:53.191Z,8.97
2019-03-05T02:26:52.918Z,9.13
2019-03-05T02:29:58.689Z,8.95
2019-03-05T02:32:51.494Z,8.94
2019-03-05T02:35:34.725Z,9.23
2019-03-05T02:38:45.682Z,9.32
2019-03-05T02:42:11.527Z,8.82
2019-03-05T02:45:09.834Z,9.05
2019-03-05T02:48:34.206Z,9.20
2019-03-05T02:51:32.632Z,9.22
2019-03-05T02:54:37.891Z,9.34
2019-03-05T02:57:09.736Z,9.14
2019-03-05T02:59:39.210Z,9.14
2019-03-05T03:02:28.351Z,9.20
2019-03-05T03:05:15.277Z,9.23
2019-03-05T03:07:44.710Z,9.25
2019-03-05T03:10:16.257Z,9.46
2019-03-05T03:12:45.736Z,8.86
2019-03-05T03:15:16.164Z,9.31
2019-03-05T03:17:45.838Z,9.21
2019-03-05T03:20:17.069Z,9.44
2019-03-05T03:22:46.410Z,9.31
2019-03-05T03:25:17.683Z,9.19
2019-03-05T03:27:47.073Z,9.01
2019-03-05T03:30:18.288Z,9.28
2019-03-05T03:32:47.698Z,9.17
2019-03-05T03:35:17.092Z,9.33
2019-03-05T03:37:46.427Z,9.42
2019-03-05T03:40:17.836Z,9.37
2019-03-05T03:42:47.346Z,9.34
2019-03-05T03:45:24.363Z,9.41
2019-03-05T03:47:53.786Z,9.32
2019-03-05T03:50:23.257Z,9.15
2019-03-05T03:52:52.649Z,9.21
2019-03-05T03:55:22.080Z,9.21
2019-03-05T03:57:51.553Z,9.28
2019-03-05T04:00:22.440Z,9.38
2019-03-05T04:02:51.981Z,9.14
2019-03-05T04:05:21.434Z,9.23
2019-03-05T04:07:50.867Z,9.04
2019-03-05T04:10:20.394Z,8.99
2019-03-05T04:12:49.813Z,8.77
2019-03-05T04:15:20.485Z,8.74
2019-03-05T04:17:50.018Z,8.89
2019-03-05T04:20:25.824Z,8.80
2019-03-05T04:22:55.297Z,8.98
2019-03-05T04:25:24.704Z,8.65
2019-03-05T04:27:54.046Z,8.88
2019-03-05T04:30:23.378Z,8.58
2019-03-05T04:32:52.754Z,8.35
2019-03-05T04:35:22.088Z,8.84
2019-03-05T04:37:51.420Z,8.86
2019-03-05T04:40:20.774Z,8.45
2019-03-05T04:42:50.174Z,8.19
2019-03-05T04:45:53.623Z,7.99
2019-03-05T04:48:22.947Z,8.20
2019-03-05T04:51:04.259Z,8.45
2019-03-05T04:53:33.586Z,8.52
2019-03-05T04:56:02.890Z,8.68
2019-03-05T04:58:33.054Z,8.30
2019-03-05T05:01:02.385Z,8.41
2019-03-05T05:03:31.762Z,8.32
2019-03-05T05:06:01.084Z,8.23
2019-03-05T05:08:30.423Z,8.03
2019-03-05T05:10:59.742Z,8.25
2019-03-05T05:13:29.151Z,8.34
2019-03-05T05:15:58.580Z,8.37
2019-03-05T05:18:27.896Z,8.34
2019-03-05T05:20:57.347Z,8.27
2019-03-05T05:23:26.673Z,8.61
2019-03-05T05:25:57.276Z,8.44
2019-03-05T05:28:26.614Z,8.68
2019-03-05T05:30:56.027Z,8.67
2019-03-05T05:33:25.364Z,8.97
2019-03-05T05:35:54.711Z,8.91
2019-03-05T05:38:24.044Z,8.47
2019-03-05T05:40:53.375Z,8.65
2019-03-05T05:43:25.194Z,8.67
2019-03-05T05:45:54.761Z,8.45
2019-03-05T05:48:24.134Z,8.51
2019-03-05T05:50:53.534Z,8.35
2019-03-05T05:53:22.850Z,8.67
2019-03-05T05:55:52.229Z,8.57
2019-03-05T05:58:21.551Z,8.70
2019-03-05T06:00:56.050Z,8.24
2019-03-05T06:03:25.421Z,8.46
2019-03-05T06:05:55.106Z,8.49
2019-03-05T06:08:24.485Z,8.35
2019-03-05T06:10:54.033Z,8.41
2019-03-05T06:13:23.504Z,8.18
2019-03-05T06:15:52.842Z,8.27
2019-03-05T06:18:22.267Z,8.59
2019-03-05T06:20:51.608Z,8.16
2019-03-05T06:23:20.932Z,8.37
2019-03-05T06:25:50.298Z,8.20
2019-03-05T06:28:19.673Z,8.68
2019-03-05T06:30:49.340Z,8.87
2019-03-05T06:33:18.756Z,8.82
2019-03-05T06:35:48.108Z,8.23
2019-03-05T06:38:17.532Z,8.17
2019-03-05T06:40:46.852Z,7.89
2019-03-05T06:43:16.282Z,8.25
2019-03-05T06:45:45.604Z,8.08
2019-03-05T06:48:15.008Z,8.03
2019-03-05T06:50:44.334Z,7.69
2019-03-05T06:53:16.723Z,7.98
2019-03-05T06:55:46.083Z,8.62
2019-03-05T06:58:15.512Z,8.15
2019-03-05T07:00:44.898Z,7.91
2019-03-05T07:03:14.212Z,7.96
2019-03-05T07:06:19.358Z,8.59
2019-03-05T07:08:56.822Z,8.46
2019-03-05T07:11:59.800Z,8.21
2019-03-05T07:15:04.782Z,8.30
2019-03-05T07:17:41.523Z,9.05
2019-03-05T07:21:01.335Z,8.93
2019-03-05T07:24:01.469Z,8.92
2019-03-05T07:26:31.595Z,8.87
2019-03-05T07:29:01.984Z,8.75
2019-03-05T07:31:31.397Z,8.99
2019-03-05T07:34:00.760Z,8.46
2019-03-05T07:36:30.192Z,8.62
2019-03-05T07:38:59.516Z,8.95
2019-03-05T07:41:28.926Z,9.01
2019-03-05T07:43:58.274Z,8.48
2019-03-05T07:46:27.891Z,8.64
2019-03-05T07:48:57.485Z,8.80
2019-03-05T07:51:27.135Z,8.98
2019-03-05T07:53:56.826Z,9.09
2019-03-05T07:56:26.539Z,9.47
2019-03-05T07:58:56.145Z,9.25
2019-03-05T08:01:25.832Z,9.14
2019-03-05T08:03:55.173Z,8.74
2019-03-05T08:06:24.602Z,8.44
2019-03-05T08:09:31.190Z,8.64
2019-03-05T08:12:08.622Z,8.96
2019-03-05T08:15:09.305Z,9.02
2019-03-05T08:17:39.197Z,9.34
2019-03-05T08:20:10.482Z,9.16
2019-03-05T08:22:40.306Z,9.25
2019-03-05T08:25:10.447Z,9.06
2019-03-05T08:27:39.754Z,9.33
2019-03-05T08:30:14.956Z,9.47
2019-03-05T08:32:44.510Z,9.43
2019-03-05T08:35:14.040Z,9.42
2019-03-05T08:37:43.430Z,9.42
2019-03-05T08:40:15.884Z,9.59
2019-03-05T08:42:44.107Z,9.63
2019-03-05T08:45:14.172Z,10.18
2019-03-05T08:47:43.667Z,10.03
2019-03-05T08:50:13.445Z,9.84
2019-03-05T08:52:42.880Z,9.93
2019-03-05T08:55:15.483Z,9.80
2019-03-05T08:57:44.831Z,9.86
2019-03-05T09:00:15.810Z,10.26
2019-03-05T09:02:49.057Z,10.60
2019-03-05T09:05:16.852Z,10.89
2019-03-05T09:07:46.278Z,10.91
2019-03-05T09:10:16.097Z,10.89
2019-03-05T09:12:45.524Z,10.95
2019-03-05T09:15:16.280Z,10.92
2019-03-05T09:17:45.711Z,11.09
2019-03-05T09:20:16.096Z,10.73
2019-03-05T09:22:45.609Z,10.81
2019-03-05T09:25:15.385Z,10.84
2019-03-05T09:27:45.039Z,10.77
2019-03-05T09:30:17.177Z,10.75
2019-03-05T09:32:46.615Z,10.84
2019-03-05T09:35:16.216Z,10.85
2019-03-05T09:37:45.867Z,10.75
2019-03-05T09:40:17.974Z,10.49
2019-03-05T09:42:47.448Z,10.26
2019-03-05T09:45:17.369Z,10.36
2019-03-05T09:47:46.868Z,10.50
2019-03-05T09:50:16.891Z,10.36
2019-03-05T09:52:54.921Z,10.21
2019-03-05T09:55:19.302Z,10.31
2019-03-05T09:57:53.341Z,10.26
2019-03-05T10:00:23.425Z,10.06
2019-03-05T10:02:52.964Z,10.18
2019-03-05T10:05:22.500Z,10.12
2019-03-05T10:07:52.358Z,10.16
2019-03-05T10:10:23.204Z,10.93
2019-03-05T10:12:52.847Z,11.45
2019-03-05T10:15:22.619Z,11.33
2019-03-05T10:17:52.095Z,11.29
2019-03-05T10:20:22.202Z,11.28
2019-03-05T10:22:51.909Z,11.11
2019-03-05T10:25:22.411Z,11.07
2019-03-05T10:27:52.036Z,10.98
2019-03-05T10:30:25.013Z,11.19
2019-03-05T10:32:54.858Z,11.31
2019-03-05T10:35:25.837Z,11.47
2019-03-05T10:37:56.909Z,11.65
2019-03-05T10:40:31.607Z,11.67
2019-03-05T10:43:08.425Z,11.81
2019-03-05T10:45:33.162Z,11.76
2019-03-05T10:48:02.617Z,11.97
2019-03-05T10:50:32.480Z,13.44
2019-03-05T10:53:01.932Z,13.21
2019-03-05T10:55:31.414Z,13.47
2019-03-05T10:58:00.901Z,14.91
2019-03-05T11:00:31.355Z,15.04
2019-03-05T11:03:00.858Z,14.98
2019-03-05T11:05:32.709Z,15.75
2019-03-05T11:08:02.234Z,15.42
2019-03-05T11:10:32.164Z,15.91
2019-03-05T11:13:01.986Z,16.08
2019-03-05T11:15:31.898Z,15.42
2019-03-05T11:18:01.354Z,15.08
2019-03-05T11:20:30.771Z,14.77
2019-03-05T11:23:00.167Z,14.98
2019-03-05T11:25:29.915Z,15.42
2019-03-05T11:27:59.357Z,15.61
2019-03-05T11:30:36.184Z,15.33
2019-03-05T11:32:59.887Z,15.07
2019-03-05T11:35:32.600Z,15.10
2019-03-05T11:38:01.997Z,14.78
2019-03-05T11:40:32.551Z,14.29
2019-03-05T11:43:08.420Z,14.05
2019-03-05T11:45:41.118Z,13.88
2019-03-05T11:48:10.614Z,13.58
2019-03-05T11:50:40.092Z,13.60
2019-03-05T11:53:09.712Z,13.59
2019-03-05T11:55:42.095Z,13.40
2019-03-05T11:58:11.595Z,13.35
2019-03-05T12:00:49.024Z,13.25
2019-03-05T12:03:18.523Z,13.31
2019-03-05T12:05:47.977Z,13.54
2019-03-05T12:08:17.506Z,13.27
2019-03-05T12:10:46.957Z,13.15
2019-03-05T12:13:16.623Z,13.13
2019-03-05T12:15:46.072Z,13.23
2019-03-05T12:18:15.613Z,13.35
2019-03-05T12:20:45.064Z,13.33
2019-03-05T12:23:14.594Z,13.24
2019-03-05T12:25:44.463Z,13.19
2019-03-05T12:28:13.941Z,13.23
2019-03-05T12:30:43.369Z,13.35
2019-03-05T12:33:12.760Z,13.61
2019-03-05T12:35:42.190Z,13.80
2019-03-05T12:38:11.571Z,13.84
2019-03-05T12:40:41.039Z,14.00
2019-03-05T12:43:10.454Z,14.48
2019-03-05T12:45:39.812Z,14.77
2019-03-05T12:48:09.204Z,14.95
2019-03-05T12:50:38.659Z,14.68
2019-03-05T12:53:08.054Z,14.24
2019-03-05T12:55:37.487Z,14.17
2019-03-05T12:58:06.927Z,14.04
2019-03-05T13:00:36.384Z,13.84
2019-03-05T13:03:06.041Z,13.62
2019-03-05T13:05:35.501Z,13.41
2019-03-05T13:08:05.238Z,13.33
2019-03-05T13:10:35.903Z,13.03
2019-03-05T13:13:05.897Z,12.61
2019-03-05T13:15:35.435Z,12.40
2019-03-05T13:18:05.087Z,12.21
2019-03-05T13:20:34.619Z,12.63
2019-03-05T13:23:08.843Z,12.59
2019-03-05T13:25:38.183Z,12.10
2019-03-05T13:28:06.730Z,11.91
2019-03-05T13:30:36.187Z,12.17
2019-03-05T13:33:05.600Z,12.58
2019-03-05T13:35:34.948Z,12.19
2019-03-05T13:38:07.676Z,11.59
2019-03-05T13:40:38.360Z,11.44
2019-03-05T13:43:07.788Z,11.13
2019-03-05T13:45:37.280Z,10.74
2019-03-05T13:48:10.746Z,10.13
2019-03-05T13:51:28.618Z,10.43
2019-03-05T13:54:18.967Z,10.36
2019-03-05T13:57:06.549Z,10.70
2019-03-05T13:59:52.002Z,10.48
2019-03-05T14:02:30.263Z,10.46
2019-03-05T14:05:35.666Z,10.37
2019-03-05T14:08:37.523Z,10.15
2019-03-05T14:11:06.975Z,10.34
2019-03-05T14:13:36.359Z,10.18
2019-03-05T14:16:07.741Z,10.12
2019-03-05T14:18:37.200Z,10.28
2019-03-05T14:21:06.673Z,10.21
2019-03-05T14:23:36.122Z,9.84
2019-03-05T14:26:06.173Z,10.13
2019-03-05T14:28:35.570Z,10.25
2019-03-05T14:31:05.327Z,10.10
2019-03-05T14:33:34.820Z,9.65
2019-03-05T14:36:04.224Z,10.05
2019-03-05T14:38:34.087Z,9.91
2019-03-05T14:41:03.539Z,10.13
2019-03-05T14:43:33.089Z,10.15
2019-03-05T14:46:02.653Z,10.15
2019-03-05T14:48:32.112Z,9.79
2019-03-05T14:51:01.446Z,9.49
2019-03-05T14:53:30.943Z,10.02
2019-03-05T14:56:00.415Z,9.97
2019-03-05T14:58:29.831Z,10.23
2019-03-05T15:00:59.258Z,10.12
2019-03-05T15:03:33.167Z,10.20
2019-03-05T15:06:02.627Z,10.32
2019-03-05T15:08:32.120Z,10.13
2019-03-05T15:11:01.515Z,9.74
2019-03-05T15:13:30.873Z,9.89
2019-03-05T15:16:00.312Z,9.63
2019-03-05T15:18:29.740Z,9.79
2019-03-05T15:20:59.213Z,9.70
2019-03-05T15:23:28.674Z,9.95
2019-03-05T15:25:58.234Z,9.58
2019-03-05T15:28:27.660Z,10.10
2019-03-05T15:30:57.118Z,10.32
2019-03-05T15:33:26.482Z,9.97
2019-03-05T15:35:55.918Z,10.07
2019-03-05T15:38:25.385Z,10.43
2019-03-05T15:40:54.878Z,10.23
2019-03-05T15:43:24.400Z,10.25
2019-03-05T15:45:53.949Z,10.29
2019-03-05T15:48:23.387Z,10.40
2019-03-05T15:50:52.896Z,10.61
2019-03-05T15:53:22.287Z,10.50
2019-03-05T15:55:51.711Z,10.62
2019-03-05T15:58:21.206Z,10.34
2019-03-05T16:00:50.749Z,10.41
2019-03-05T16:03:20.480Z,10.64
2019-03-05T16:05:49.869Z,10.72
2019-03-05T16:08:20.897Z,10.69
2019-03-05T16:10:54.084Z,10.70
2019-03-05T16:13:21.684Z,10.71
2019-03-05T16:15:51.164Z,10.66
2019-03-05T16:18:20.641Z,10.80
2019-03-05T16:20:50.164Z,10.99
2019-03-05T16:23:19.560Z,10.77
2019-03-05T16:25:50.334Z,10.70
2019-03-05T16:28:21.968Z,10.34
2019-03-05T16:31:11.311Z,10.61
2019-03-05T16:33:58.439Z,10.66
2019-03-05T16:36:40.947Z,10.80
2019-03-05T16:39:46.337Z,10.75
2019-03-05T16:42:34.576Z,10.89
2019-03-05T16:45:23.146Z,10.98
2019-03-05T16:48:09.070Z,10.99
2019-03-05T16:51:01.167Z,11.03
2019-03-05T16:54:04.674Z,11.22
2019-03-05T16:56:58.928Z,11.33
2019-03-05T16:59:49.844Z,11.44
2019-03-05T17:02:45.240Z,11.53
2019-03-05T17:05:33.316Z,11.59
2019-03-05T17:08:15.077Z,11.55
2019-03-05T17:11:06.572Z,11.27
2019-03-05T17:13:36.008Z,11.06
2019-03-05T17:16:05.526Z,11.11
2019-03-05T17:18:34.893Z,11.05
2019-03-05T17:21:04.378Z,11.05
2019-03-05T17:23:33.851Z,11.15
2019-03-05T17:26:03.315Z,11.02
2019-03-05T17:28:33.029Z,10.98
2019-03-05T17:31:02.722Z,10.97
2019-03-05T17:33:32.645Z,10.94
2019-03-05T17:36:02.043Z,10.97
2019-03-05T17:38:31.473Z,10.95
2019-03-05T17:41:00.943Z,10.89
2019-03-05T17:43:30.426Z,10.93
2019-03-05T17:45:59.935Z,10.97
2019-03-05T17:48:29.372Z,10.85
2019-03-05T17:50:58.914Z,10.92
2019-03-05T17:53:28.394Z,10.87
2019-03-05T17:55:57.888Z,10.82
2019-03-05T17:58:27.330Z,10.81
2019-03-05T18:00:57.312Z,10.72
2019-03-05T18:03:26.772Z,10.71
2019-03-05T18:05:56.152Z,10.78
2019-03-05T18:08:25.705Z,10.81
2019-03-05T18:10:55.160Z,10.76
2019-03-05T18:13:24.621Z,10.69
2019-03-05T18:15:54.097Z,10.77
2019-03-05T18:18:23.764Z,10.72
2019-03-05T18:20:53.315Z,10.68
2019-03-05T18:23:22.695Z,10.72
2019-03-05T18:25:52.080Z,10.65
2019-03-05T18:28:21.545Z,10.65
2019-03-05T18:30:50.963Z,10.63
2019-03-05T18:33:20.414Z,10.71
2019-03-05T18:35:50.031Z,10.69
2019-03-05T18:38:19.543Z,10.70
2019-03-05T18:40:49.105Z,10.66
2019-03-05T18:43:18.801Z,10.68
2019-03-05T18:45:48.261Z,10.70
2019-03-05T18:48:17.738Z,10.69
2019-03-05T18:50:50.069Z,10.77
2019-03-05T18:53:19.663Z,10.76
2019-03-05T18:55:49.133Z,10.65
2019-03-05T18:58:18.712Z,10.62
2019-03-05T19:00:48.202Z,10.61
2019-03-05T19:03:17.694Z,10.62
2019-03-05T19:05:47.381Z,10.58
2019-03-05T19:08:16.799Z,10.66
2019-03-05T19:10:46.256Z,10.57
2019-03-05T19:13:18.612Z,10.54
2019-03-05T19:15:50.222Z,10.54
2019-03-05T19:18:19.730Z,10.59
2019-03-05T19:20:49.269Z,10.59
2019-03-05T19:23:19.063Z,10.56
2019-03-05T19:25:50.086Z,10.32
2019-03-05T19:28:19.484Z,10.48
2019-03-05T19:30:49.029Z,10.42
2019-03-05T19:33:18.605Z,10.33
2019-03-05T19:35:48.106Z,10.29
2019-03-05T19:38:17.717Z,10.02
2019-03-05T19:40:47.268Z,9.70
2019-03-05T19:43:16.667Z,9.58
2019-03-05T19:45:46.178Z,9.95
2019-03-05T19:48:15.697Z,10.12
2019-03-05T19:50:45.318Z,10.21
2019-03-05T19:53:14.769Z,10.26
2019-03-05T19:55:44.342Z,10.09
2019-03-05T19:58:14.061Z,10.08
2019-03-05T20:00:53.931Z,10.17
2019-03-05T20:03:26.751Z,10.11
2019-03-05T20:05:56.434Z,10.26
2019-03-05T20:08:26.127Z,10.31
2019-03-05T20:10:55.623Z,10.36
2019-03-05T20:13:25.165Z,10.34
2019-03-05T20:15:54.715Z,10.39
2019-03-05T20:18:24.216Z,10.33
2019-03-05T20:20:53.886Z,10.40
2019-03-05T20:23:23.685Z,10.41
2019-03-05T20:25:53.224Z,10.34
2019-03-05T20:28:24.846Z,10.26
2019-03-05T20:30:56.900Z,9.98
2019-03-05T20:33:27.604Z,10.18
2019-03-05T20:36:08.764Z,10.31
2019-03-05T20:38:40.253Z,10.40
2019-03-05T20:41:11.838Z,10.08
2019-03-05T20:43:42.994Z,10.16
2019-03-05T20:46:26.016Z,10.34
2019-03-05T20:48:55.922Z,10.11
2019-03-05T20:51:27.594Z,10.34
2019-03-05T20:53:57.288Z,10.33
2019-03-05T20:56:34.676Z,10.25
2019-03-05T20:59:04.057Z,10.31
2019-03-05T21:01:33.488Z,10.31
2019-03-05T21:04:03.180Z,10.26
2019-03-05T21:06:32.546Z,10.11
2019-03-05T21:09:02.344Z,10.08
2019-03-05T21:11:31.983Z,9.86
2019-03-05T21:14:01.393Z,10.05
2019-03-05T21:16:31.092Z,10.16
2019-03-05T21:19:00.623Z,10.14
2019-03-05T21:21:30.046Z,10.14
2019-03-05T21:23:59.534Z,9.96
2019-03-05T21:26:28.935Z,10.01
2019-03-05T21:28:58.282Z,9.95
2019-03-05T21:31:27.742Z,10.07
2019-03-05T21:33:57.109Z,10.17
2019-03-05T21:36:26.631Z,10.21
2019-03-05T21:38:56.004Z,10.15
2019-03-05T21:41:25.474Z,10.23
2019-03-05T21:43:54.899Z,10.24
2019-03-05T21:46:24.367Z,10.06
2019-03-05T21:48:53.766Z,10.15
2019-03-05T21:51:23.329Z,10.13
2019-03-05T21:54:01.335Z,10.21
2019-03-05T21:56:30.876Z,10.17
2019-03-05T21:59:00.292Z,10.17
2019-03-05T22:01:29.632Z,10.14
2019-03-05T22:03:59.030Z,10.22
2019-03-05T22:06:28.524Z,10.12
2019-03-05T22:08:58.003Z,10.11
2019-03-05T22:11:27.639Z,10.12
2019-03-05T22:13:57.308Z,10.07
2019-03-05T22:16:26.743Z,10.09
2019-03-05T22:18:56.140Z,10.14
2019-03-05T22:21:25.591Z,10.06
2019-03-05T22:23:55.189Z,10.11
2019-03-05T22:26:24.811Z,10.20
2019-03-05T22:28:54.320Z,10.12
2019-03-05T22:31:23.707Z,10.11
2019-03-05T22:33:53.199Z,10.10
2019-03-05T22:36:34.610Z,10.07
2019-03-05T22:39:04.490Z,10.06
2019-03-05T22:41:33.968Z,10.00
2019-03-05T22:44:03.363Z,10.06
2019-03-05T22:46:32.744Z,10.17
2019-03-05T22:49:02.129Z,10.17
2019-03-05T22:51:31.540Z,10.18
2019-03-05T22:54:01.053Z,10.08
2019-03-05T22:56:30.534Z,10.22
2019-03-05T22:59:00.275Z,10.07
2019-03-05T23:01:35.919Z,10.13
2019-03-05T23:04:05.432Z,10.05
2019-03-05T23:06:35.114Z,10.03
2019-03-05T23:09:08.114Z,10.03
2019-03-05T23:11:38.180Z,10.05
2019-03-05T23:14:08.044Z,10.13
2019-03-05T23:16:37.524Z,10.12
2019-03-05T23:19:07.088Z,10.07
2019-03-05T23:21:37.999Z,10.18
2019-03-05T23:24:07.572Z,10.11
2019-03-05T23:26:37.023Z,10.05
2019-03-05T23:29:08.064Z,10.02
2019-03-05T23:31:37.601Z,10.00
2019-03-05T23:34:07.043Z,9.95
2019-03-05T23:36:36.470Z,10.00
2019-03-05T23:39:08.522Z,10.06
2019-03-05T23:41:37.909Z,10.05
2019-03-05T23:44:07.442Z,10.11
2019-03-05T23:46:36.818Z,10.06
2019-03-05T23:49:06.381Z,10.17
2019-03-05T23:51:35.833Z,10.20
2019-03-05T23:54:05.299Z,10.17
2019-03-05T23:56:34.722Z,10.19
2019-03-05T23:59:04.431Z,10.23
